createdAt,value
2018-07-05T00:02:38.140Z,43.40
2018-07-05T00:05:19.507Z,43.40
2018-07-05T00:08:01.101Z,43.50
2018-07-05T00:10:42.512Z,43.50
2018-07-05T00:13:24.071Z,43.50
2018-07-05T00:16:05.590Z,43.50
2018-07-05T00:18:46.668Z,43.60
2018-07-05T00:21:27.915Z,43.60
2018-07-05T00:24:10.431Z,43.70
2018-07-05T00:26:51.432Z,43.70
2018-07-05T00:29:32.884Z,43.80
2018-07-05T00:32:14.188Z,43.80
2018-07-05T00:34:55.453Z,43.80
2018-07-05T00:37:37.044Z,43.80
2018-07-05T00:40:18.735Z,43.90
2018-07-05T00:42:59.723Z,43.90
2018-07-05T00:45:40.800Z,43.90
2018-07-05T00:48:22.280Z,43.90
2018-07-05T00:51:03.660Z,44.00
2018-07-05T00:53:45.148Z,44.10
2018-07-05T00:56:26.260Z,44.20
2018-07-05T00:59:07.608Z,44.40
2018-07-05T01:01:49.003Z,45.00
2018-07-05T01:04:30.387Z,44.60
2018-07-05T01:07:11.773Z,44.70
2018-07-05T01:09:53.451Z,44.90
2018-07-05T01:12:35.064Z,45.00
2018-07-05T01:15:16.427Z,45.10
2018-07-05T01:17:57.812Z,45.00
2018-07-05T01:20:38.899Z,44.90
2018-07-05T01:23:20.351Z,44.70
2018-07-05T01:26:02.475Z,44.50
2018-07-05T01:28:43.965Z,44.30
2018-07-05T01:31:25.659Z,44.10
2018-07-05T01:34:07.247Z,43.90
2018-07-05T01:36:48.939Z,43.70
2018-07-05T01:39:30.403Z,43.50
2018-07-05T01:42:11.100Z,43.30
2018-07-05T01:44:52.382Z,43.20
2018-07-05T01:47:33.739Z,43.10
2018-07-05T01:50:14.400Z,43.10
2018-07-05T01:52:55.435Z,43.10
2018-07-05T01:55:36.516Z,43.20
2018-07-05T01:58:18.048Z,43.20
2018-07-05T02:00:58.965Z,43.20
2018-07-05T02:03:40.427Z,43.30
2018-07-05T02:06:22.018Z,43.30
2018-07-05T02:09:03.504Z,43.30
2018-07-05T02:11:45.098Z,43.50
2018-07-05T02:14:26.221Z,43.60
2018-07-05T02:17:07.488Z,43.70
2018-07-05T02:19:48.727Z,43.90
2018-07-05T02:22:30.231Z,44.00
2018-07-05T02:25:11.688Z,44.10
2018-07-05T02:27:53.307Z,44.20
2018-07-05T02:30:34.864Z,44.30
2018-07-05T02:33:16.264Z,44.40
2018-07-05T02:35:57.861Z,44.50
2018-07-05T02:38:39.147Z,44.70
2018-07-05T02:41:20.299Z,44.80
2018-07-05T02:44:01.604Z,44.90
2018-07-05T02:46:43.090Z,45.00
2018-07-05T02:49:24.476Z,45.10
2018-07-05T02:52:05.840Z,45.10
2018-07-05T02:54:47.244Z,45.20
2018-07-05T02:57:28.731Z,45.30
2018-07-05T03:00:10.325Z,45.40
2018-07-05T03:02:52.612Z,45.50
2018-07-05T03:05:33.820Z,45.60
2018-07-05T03:08:15.126Z,45.70
2018-07-05T03:10:56.488Z,46.20
2018-07-05T03:13:37.760Z,45.90
2018-07-05T03:16:19.346Z,45.90
2018-07-05T03:19:01.036Z,46.00
2018-07-05T03:21:42.526Z,46.10
2018-07-05T03:24:24.312Z,46.30
2018-07-05T03:27:05.703Z,46.40
2018-07-05T03:29:47.271Z,46.50
2018-07-05T03:32:28.676Z,46.70
2018-07-05T03:35:10.264Z,46.80
2018-07-05T03:37:51.751Z,46.90
2018-07-05T03:40:33.343Z,47.00
2018-07-05T03:43:14.655Z,47.00
2018-07-05T03:45:55.800Z,47.00
2018-07-05T03:48:37.181Z,47.30
2018-07-05T03:51:18.444Z,47.00
2018-07-05T03:53:59.847Z,47.10
2018-07-05T03:56:41.232Z,47.10
2018-07-05T03:59:23.235Z,47.00
2018-07-05T04:02:04.617Z,47.10
2018-07-05T04:04:46.728Z,47.10
2018-07-05T04:07:27.999Z,47.50
2018-07-05T04:10:09.270Z,47.00
2018-07-05T04:12:50.684Z,47.00
2018-07-05T04:15:32.038Z,47.00
2018-07-05T04:18:13.331Z,47.00
2018-07-05T04:20:54.920Z,47.00
2018-07-05T04:23:36.211Z,47.00
2018-07-05T04:26:17.470Z,47.00
2018-07-05T04:28:58.575Z,47.10
2018-07-05T04:31:40.359Z,47.10
2018-07-05T04:34:21.529Z,47.50
2018-07-05T04:37:03.031Z,47.10
2018-07-05T04:39:44.519Z,47.10
2018-07-05T04:42:26.210Z,47.10
2018-07-05T04:45:07.304Z,47.10
2018-07-05T04:47:49.234Z,47.00
2018-07-05T04:50:30.487Z,47.10
2018-07-05T04:53:11.884Z,47.10
2018-07-05T04:55:53.192Z,47.10
2018-07-05T04:58:34.496Z,47.40
2018-07-05T05:01:15.776Z,47.20
2018-07-05T05:03:57.187Z,47.20
2018-07-05T05:06:38.772Z,47.20
2018-07-05T05:09:20.160Z,47.30
2018-07-05T05:12:01.462Z,47.30
2018-07-05T05:14:42.840Z,47.40
2018-07-05T05:17:24.132Z,48.00
2018-07-05T05:20:05.292Z,47.50
2018-07-05T05:22:46.571Z,47.60
2018-07-05T05:25:27.956Z,47.60
2018-07-05T05:28:09.443Z,47.60
2018-07-05T05:30:50.940Z,47.60
2018-07-05T05:33:32.752Z,47.70
2018-07-05T05:36:14.305Z,47.70
2018-07-05T05:38:55.722Z,48.20
2018-07-05T05:41:37.112Z,47.70
2018-07-05T05:44:18.600Z,47.80
2018-07-05T05:46:59.939Z,47.80
2018-07-05T05:49:42.095Z,47.80
2018-07-05T05:52:23.396Z,47.80
2018-07-05T05:55:04.657Z,47.90
2018-07-05T05:57:46.266Z,48.00
2018-07-05T06:00:27.746Z,48.00
2018-07-05T06:03:09.028Z,48.00
2018-07-05T06:05:50.195Z,48.00
2018-07-05T06:08:31.647Z,48.10
2018-07-05T06:11:12.952Z,48.20
2018-07-05T06:13:54.325Z,48.20
2018-07-05T06:16:35.731Z,48.30
2018-07-05T06:21:52.548Z,48.40
2018-07-05T06:24:34.107Z,48.40
2018-07-05T06:27:15.421Z,48.40
2018-07-05T06:29:56.776Z,48.50
2018-07-05T06:32:38.360Z,48.50
2018-07-05T06:35:19.883Z,48.50
2018-07-05T06:38:01.272Z,48.50
2018-07-05T06:40:42.656Z,48.70
2018-07-05T06:43:23.911Z,48.60
2018-07-05T06:46:05.499Z,48.50
2018-07-05T06:48:46.883Z,48.50
2018-07-05T06:51:28.112Z,48.50
2018-07-05T06:54:09.380Z,48.50
2018-07-05T06:56:50.970Z,48.50
2018-07-05T06:59:32.245Z,48.60
2018-07-05T07:02:13.724Z,48.50
2018-07-05T07:04:54.976Z,48.60
2018-07-05T07:07:37.304Z,48.70
2018-07-05T07:10:18.592Z,48.70
2018-07-05T07:12:59.960Z,48.70
2018-07-05T07:15:41.275Z,48.70
2018-07-05T07:20:57.869Z,48.70
2018-07-05T07:23:39.148Z,48.70
2018-07-05T07:26:20.460Z,48.70
2018-07-05T07:29:01.832Z,48.70
2018-07-05T07:31:43.241Z,48.70
2018-07-05T07:34:24.801Z,48.70
2018-07-05T07:37:06.516Z,48.70
2018-07-05T07:39:47.575Z,48.70
2018-07-05T07:42:17.976Z,48.70
2018-07-05T07:44:47.176Z,48.70
2018-07-05T07:47:16.380Z,48.70
2018-07-05T07:49:45.508Z,48.70
2018-07-05T07:52:14.687Z,48.70
2018-07-05T07:54:43.800Z,48.70
2018-07-05T07:57:12.897Z,48.70
2018-07-05T07:59:41.996Z,48.70
2018-07-05T08:02:11.156Z,48.80
2018-07-05T08:04:40.048Z,49.20
2018-07-05T08:07:09.032Z,48.80
2018-07-05T08:09:38.164Z,48.70
2018-07-05T08:12:07.269Z,48.80
2018-07-05T08:14:36.364Z,48.80
2018-07-05T08:17:05.464Z,49.00
2018-07-05T08:19:34.552Z,48.90
2018-07-05T08:22:03.748Z,48.90
2018-07-05T08:24:33.059Z,48.90
2018-07-05T08:29:31.420Z,49.00
2018-07-05T08:32:00.560Z,49.00
2018-07-05T08:34:29.715Z,49.00
2018-07-05T08:36:59.252Z,49.10
2018-07-05T08:39:28.348Z,49.10
2018-07-05T08:41:57.440Z,49.10
2018-07-05T08:44:26.548Z,49.10
2018-07-05T08:46:55.639Z,49.20
2018-07-05T08:49:24.736Z,49.20
2018-07-05T08:51:53.840Z,49.20
2018-07-05T08:54:22.935Z,49.20
2018-07-05T08:56:52.032Z,49.20
2018-07-05T08:59:21.208Z,49.30
2018-07-05T09:01:50.404Z,49.30
2018-07-05T09:04:19.594Z,49.30
2018-07-05T09:06:48.788Z,49.30
2018-07-05T09:09:17.999Z,49.40
2018-07-05T09:11:47.216Z,49.30
2018-07-05T09:14:16.395Z,49.40
2018-07-05T09:16:45.689Z,49.40
2018-07-05T09:19:15.676Z,49.50
2018-07-05T09:21:44.650Z,49.50
2018-07-05T09:24:13.635Z,49.60
2018-07-05T09:26:42.769Z,49.60
2018-07-05T09:29:11.912Z,50.20
2018-07-05T09:31:41.012Z,49.70
2018-07-05T09:34:10.020Z,49.80
2018-07-05T09:36:39.177Z,49.70
2018-07-05T09:39:09.040Z,49.70
2018-07-05T09:41:38.240Z,49.30
2018-07-05T09:44:07.315Z,48.90
2018-07-05T09:46:36.431Z,48.10
2018-07-05T09:49:05.504Z,47.70
2018-07-05T09:51:34.692Z,47.30
2018-07-05T09:54:03.816Z,47.20
2018-07-05T09:56:32.909Z,46.60
2018-07-05T09:59:02.150Z,46.00
2018-07-05T10:01:31.303Z,45.40
2018-07-05T10:04:00.463Z,45.40
2018-07-05T10:06:29.444Z,45.20
2018-07-05T10:08:58.399Z,45.00
2018-07-05T10:11:27.392Z,44.80
2018-07-05T10:13:56.453Z,44.70
2018-07-05T10:16:25.568Z,44.50
2018-07-05T10:18:54.670Z,44.20
2018-07-05T10:21:23.772Z,44.20
2018-07-05T10:23:52.868Z,44.20
2018-07-05T10:26:21.959Z,43.90
2018-07-05T10:29:03.207Z,43.90
2018-07-05T10:31:44.219Z,44.20
2018-07-05T10:34:13.303Z,43.70
2018-07-05T10:36:42.408Z,43.50
2018-07-05T10:39:12.603Z,43.30
2018-07-05T10:41:53.992Z,43.00
2018-07-05T10:44:35.376Z,43.00
2018-07-05T10:47:16.691Z,43.00
2018-07-05T10:49:58.169Z,43.00
2018-07-05T10:52:39.538Z,43.10
2018-07-05T10:55:20.661Z,43.10
2018-07-05T10:58:02.096Z,43.10
2018-07-05T11:00:42.933Z,43.00
2018-07-05T11:03:24.184Z,43.00
2018-07-05T11:06:05.552Z,43.00
2018-07-05T11:08:46.940Z,43.10
2018-07-05T11:11:28.303Z,43.10
2018-07-05T11:14:09.676Z,43.00
2018-07-05T11:16:51.160Z,43.10
2018-07-05T11:19:32.685Z,43.00
2018-07-05T11:22:14.001Z,43.00
2018-07-05T11:24:55.247Z,43.20
2018-07-05T11:27:36.736Z,43.00
2018-07-05T11:30:18.349Z,43.00
2018-07-05T11:32:59.607Z,43.00
2018-07-05T11:35:41.159Z,43.00
2018-07-05T11:38:22.555Z,43.50
2018-07-05T11:41:04.376Z,42.90
2018-07-05T11:43:45.624Z,42.90
2018-07-05T11:46:26.732Z,42.90
2018-07-05T11:49:08.052Z,42.80
2018-07-05T11:51:49.415Z,42.90
2018-07-05T11:54:30.719Z,42.80
2018-07-05T11:57:11.971Z,42.70
2018-07-05T11:59:53.356Z,42.70
2018-07-05T12:02:34.838Z,42.60
2018-07-05T12:05:16.395Z,42.60
2018-07-05T12:07:57.893Z,43.10
2018-07-05T12:10:39.581Z,42.60
2018-07-05T12:13:21.472Z,42.50
2018-07-05T12:16:02.456Z,42.60
2018-07-05T12:18:43.824Z,42.60
2018-07-05T12:21:25.324Z,42.70
2018-07-05T12:24:06.574Z,42.70
2018-07-05T12:26:48.007Z,42.80
2018-07-05T12:29:29.504Z,42.80
2018-07-05T12:32:10.777Z,42.80
2018-07-05T12:34:52.490Z,42.80
2018-07-05T12:37:33.650Z,42.80
2018-07-05T12:40:14.951Z,42.80
2018-07-05T12:42:56.429Z,42.80
2018-07-05T12:45:37.704Z,42.90
2018-07-05T12:48:19.096Z,42.80
2018-07-05T12:53:36.073Z,42.90
2018-07-05T12:56:17.506Z,43.00
2018-07-05T12:58:58.870Z,43.10
2018-07-05T13:01:40.463Z,43.20
2018-07-05T13:04:22.213Z,43.30
2018-07-05T13:07:03.730Z,43.30
2018-07-05T13:09:45.148Z,43.50
2018-07-05T13:12:26.540Z,43.60
2018-07-05T13:15:07.788Z,43.60
2018-07-05T13:17:49.271Z,43.80
2018-07-05T13:20:30.864Z,43.70
2018-07-05T13:23:12.243Z,43.80
2018-07-05T13:25:53.552Z,43.80
2018-07-05T13:28:34.816Z,43.80
2018-07-05T13:31:16.092Z,43.70
2018-07-05T13:33:58.515Z,43.70
2018-07-05T13:36:39.787Z,43.80
2018-07-05T13:39:21.281Z,43.50
2018-07-05T13:42:02.856Z,43.90
2018-07-05T13:44:44.463Z,44.00
2018-07-05T13:47:25.748Z,44.00
2018-07-05T13:50:07.008Z,44.00
2018-07-05T13:52:48.602Z,44.00
2018-07-05T13:55:29.988Z,44.10
2018-07-05T13:58:11.583Z,44.20
2018-07-05T14:00:53.163Z,44.20
2018-07-05T14:03:34.342Z,44.40
2018-07-05T14:06:15.728Z,44.50
2018-07-05T14:08:57.043Z,44.50
2018-07-05T14:11:38.379Z,44.50
2018-07-05T14:14:19.860Z,44.60
2018-07-05T14:17:01.368Z,44.70
2018-07-05T14:19:42.959Z,44.70
2018-07-05T14:22:24.475Z,44.90
2018-07-05T14:25:06.036Z,45.00
2018-07-05T14:27:47.012Z,45.00
2018-07-05T14:30:28.306Z,45.20
2018-07-05T14:33:09.671Z,45.30
2018-07-05T14:35:51.240Z,45.50
2018-07-05T14:38:32.800Z,45.70
2018-07-05T14:41:13.752Z,45.80
